Pagina principale
METAR-TAF:

METAR-TAF

Aeroporti :

Aeroporto di Karlsruhe-Baden-Baden

Baden-Baden, Germania

latitudine: 48-46-43N, longitudine: 008-04-47E, altezza: 124 m

Osservazione

Il bollettino è stato emesso 35 minuti fa, alle 04:20 UTC
Vento 18 kt da nord-est
Temperature 2°C
Umidità 60%
Pressione 1026 hPa
Visibilità 10 km o più
Cielo coperto ad un'altezza di 4300 ft

METAR: EDSB 300420Z 04018KT 9999 OVC043 02/M05 Q1026

Ora: 06:55 (04:55 UTC)

Previsione

Il bollettino è stato emesso 1 ora e 55 minuti fa, alle 03:00 UTC
Previsione valida dal 30 alle 04 UTC al 30 alle 24 UTC
Vento 15 kt da nord/nord-est con raffiche fino a 25 kt
Visibilità 10 km o più
Nubi sparse ad un'altezza di 4000 ft
Evoluzione graduale
dal 30 alle 16 UTC al 30 alle 18 UTC
Vento 10 kt da nord/nord-est

TAF: EDSB 300300Z 3004/3024 03015G25KT 9999 SCT040 BECMG 3016/3018 02010KT

Osservazioni e previsioni meteorologiche di più di 4000 aeroporti (messaggi METAR e TAF).

Le stazioni disponibili sono rappresentate dai dischi gialli e rossi sulla carta.

Puntare il mouse per vedere il nome della stazione.

Clicca sopra per visualizzare le osservazioni e previsioni meteorologiche.

Per cambiare la mappa : fare clic sui pulsanti verdi con una croce nera per ingrandire, il pulsante verde con un trattino per diminuire, o sulla freccia verde per le mappe adiacenti.


METAR-TAF: